sensor_id;sensor_type;location;lat;lon;timestamp;P1;durP1;ratioP1;P2;durP2;ratioP2
38252;SDS011;24785;52.372;20.672;2022-11-25T00:04:07;107.95;;;25.38;;
38252;SDS011;24785;52.372;20.672;2022-11-25T00:14:09;135.02;;;29.85;;
38252;SDS011;24785;52.372;20.672;2022-11-25T00:24:13;111.43;;;26.83;;
38252;SDS011;24785;52.372;20.672;2022-11-25T00:34:15;114.57;;;27.85;;
38252;SDS011;24785;52.372;20.672;2022-11-25T00:44:17;95.57;;;24.77;;
38252;SDS011;24785;52.372;20.672;2022-11-25T00:54:38;117.10;;;28.90;;
38252;SDS011;24785;52.372;20.672;2022-11-25T01:04:39;96.95;;;24.08;;
38252;SDS011;24785;52.372;20.672;2022-11-25T01:14:40;98.88;;;25.48;;
38252;SDS011;24785;52.372;20.672;2022-11-25T01:24:41;116.47;;;26.38;;
38252;SDS011;24785;52.372;20.672;2022-11-25T01:34:42;93.28;;;24.23;;
38252;SDS011;24785;52.372;20.672;2022-11-25T01:44:43;103.45;;;26.85;;
38252;SDS011;24785;52.372;20.672;2022-11-25T01:54:49;93.00;;;23.95;;
38252;SDS011;24785;52.372;20.672;2022-11-25T02:05:03;103.45;;;24.83;;
38252;SDS011;24785;52.372;20.672;2022-11-25T02:15:08;97.43;;;23.70;;
38252;SDS011;24785;52.372;20.672;2022-11-25T02:35:26;109.65;;;25.20;;
38252;SDS011;24785;52.372;20.672;2022-11-25T02:45:44;110.10;;;27.63;;
38252;SDS011;24785;52.372;20.672;2022-11-25T02:55:51;96.97;;;25.17;;
38252;SDS011;24785;52.372;20.672;2022-11-25T03:05:52;102.70;;;25.88;;
38252;SDS011;24785;52.372;20.672;2022-11-25T03:15:52;101.22;;;25.38;;
38252;SDS011;24785;52.372;20.672;2022-11-25T03:25:53;96.80;;;24.60;;
38252;SDS011;24785;52.372;20.672;2022-11-25T03:35:55;94.28;;;23.70;;
38252;SDS011;24785;52.372;20.672;2022-11-25T03:45:55;76.85;;;22.77;;
38252;SDS011;24785;52.372;20.672;2022-11-25T03:55:56;90.40;;;23.00;;
38252;SDS011;24785;52.372;20.672;2022-11-25T04:05:57;90.82;;;24.65;;
38252;SDS011;24785;52.372;20.672;2022-11-25T04:15:58;88.10;;;24.55;;
38252;SDS011;24785;52.372;20.672;2022-11-25T04:25:59;93.32;;;22.73;;
38252;SDS011;24785;52.372;20.672;2022-11-25T04:36:00;84.47;;;23.13;;
38252;SDS011;24785;52.372;20.672;2022-11-25T04:46:01;90.15;;;21.85;;
38252;SDS011;24785;52.372;20.672;2022-11-25T04:56:01;97.13;;;26.63;;
38252;SDS011;24785;52.372;20.672;2022-11-25T05:06:09;102.13;;;23.88;;
38252;SDS011;24785;52.372;20.672;2022-11-25T05:16:09;100.97;;;26.90;;
38252;SDS011;24785;52.372;20.672;2022-11-25T05:26:10;103.78;;;25.90;;
38252;SDS011;24785;52.372;20.672;2022-11-25T05:36:11;102.28;;;26.60;;
38252;SDS011;24785;52.372;20.672;2022-11-25T05:46:12;91.38;;;24.50;;
38252;SDS011;24785;52.372;20.672;2022-11-25T05:56:13;101.68;;;29.38;;
38252;SDS011;24785;52.372;20.672;2022-11-25T06:06:14;103.93;;;33.45;;
38252;SDS011;24785;52.372;20.672;2022-11-25T06:16:16;88.85;;;24.67;;
38252;SDS011;24785;52.372;20.672;2022-11-25T06:26:20;93.28;;;26.80;;
38252;SDS011;24785;52.372;20.672;2022-11-25T06:36:22;78.05;;;24.80;;
38252;SDS011;24785;52.372;20.672;2022-11-25T06:46:23;86.75;;;24.08;;
38252;SDS011;24785;52.372;20.672;2022-11-25T06:56:25;89.78;;;25.67;;
38252;SDS011;24785;52.372;20.672;2022-11-25T07:06:28;70.75;;;21.60;;
38252;SDS011;24785;52.372;20.672;2022-11-25T07:16:29;97.10;;;28.90;;
38252;SDS011;24785;52.372;20.672;2022-11-25T07:26:34;81.50;;;22.37;;
38252;SDS011;24785;52.372;20.672;2022-11-25T07:36:40;81.95;;;22.92;;
38252;SDS011;24785;52.372;20.672;2022-11-25T07:46:42;83.60;;;21.33;;
38252;SDS011;24785;52.372;20.672;2022-11-25T07:56:45;86.97;;;26.05;;
38252;SDS011;24785;52.372;20.672;2022-11-25T08:06:48;81.88;;;21.13;;
38252;SDS011;24785;52.372;20.672;2022-11-25T08:16:50;81.72;;;22.55;;
38252;SDS011;24785;52.372;20.672;2022-11-25T08:26:51;108.22;;;31.15;;
38252;SDS011;24785;52.372;20.672;2022-11-25T08:36:54;111.72;;;29.40;;
38252;SDS011;24785;52.372;20.672;2022-11-25T08:46:55;81.80;;;21.90;;
38252;SDS011;24785;52.372;20.672;2022-11-25T08:56:56;82.55;;;22.35;;
38252;SDS011;24785;52.372;20.672;2022-11-25T09:06:57;71.30;;;21.25;;
38252;SDS011;24785;52.372;20.672;2022-11-25T09:16:58;81.88;;;22.35;;
38252;SDS011;24785;52.372;20.672;2022-11-25T09:26:58;71.90;;;20.67;;
38252;SDS011;24785;52.372;20.672;2022-11-25T09:36:59;74.95;;;22.58;;
38252;SDS011;24785;52.372;20.672;2022-11-25T09:47:16;120.43;;;34.78;;
38252;SDS011;24785;52.372;20.672;2022-11-25T10:07:51;70.40;;;20.85;;
38252;SDS011;24785;52.372;20.672;2022-11-25T10:17:57;82.57;;;23.65;;
38252;SDS011;24785;52.372;20.672;2022-11-25T10:28:01;77.57;;;24.00;;
38252;SDS011;24785;52.372;20.672;2022-11-25T10:38:13;75.57;;;23.08;;
38252;SDS011;24785;52.372;20.672;2022-11-25T10:48:43;75.68;;;23.27;;
38252;SDS011;24785;52.372;20.672;2022-11-25T10:59:08;78.47;;;24.30;;
38252;SDS011;24785;52.372;20.672;2022-11-25T11:19:32;77.20;;;25.35;;
38252;SDS011;24785;52.372;20.672;2022-11-25T11:29:33;77.57;;;26.50;;
38252;SDS011;24785;52.372;20.672;2022-11-25T11:49:56;71.47;;;23.65;;
38252;SDS011;24785;52.372;20.672;2022-11-25T12:00:17;74.00;;;23.65;;
38252;SDS011;24785;52.372;20.672;2022-11-25T12:10:24;90.72;;;30.15;;
38252;SDS011;24785;52.372;20.672;2022-11-25T12:20:57;111.03;;;34.55;;
38252;SDS011;24785;52.372;20.672;2022-11-25T12:31:05;85.03;;;28.95;;
38252;SDS011;24785;52.372;20.672;2022-11-25T12:41:46;88.15;;;28.15;;
38252;SDS011;24785;52.372;20.672;2022-11-25T13:22:51;79.40;;;24.02;;
38252;SDS011;24785;52.372;20.672;2022-11-25T13:43:28;83.30;;;27.63;;
38252;SDS011;24785;52.372;20.672;2022-11-25T13:53:31;98.10;;;32.30;;
38252;SDS011;24785;52.372;20.672;2022-11-25T14:13:50;75.47;;;26.30;;
38252;SDS011;24785;52.372;20.672;2022-11-25T14:34:15;70.47;;;23.92;;
38252;SDS011;24785;52.372;20.672;2022-11-25T14:44:25;71.50;;;23.85;;
38252;SDS011;24785;52.372;20.672;2022-11-25T14:54:32;86.13;;;36.90;;
38252;SDS011;24785;52.372;20.672;2022-11-25T15:04:41;96.28;;;34.33;;
38252;SDS011;24785;52.372;20.672;2022-11-25T15:14:43;243.90;;;86.47;;
38252;SDS011;24785;52.372;20.672;2022-11-25T15:24:50;71.43;;;25.55;;
38252;SDS011;24785;52.372;20.672;2022-11-25T15:34:53;71.18;;;24.15;;
38252;SDS011;24785;52.372;20.672;2022-11-25T15:45:08;71.47;;;23.90;;
38252;SDS011;24785;52.372;20.672;2022-11-25T15:55:25;75.13;;;24.05;;
38252;SDS011;24785;52.372;20.672;2022-11-25T16:05:28;105.20;;;36.67;;
38252;SDS011;24785;52.372;20.672;2022-11-25T16:15:43;94.82;;;33.70;;
38252;SDS011;24785;52.372;20.672;2022-11-25T16:25:54;81.68;;;29.40;;
38252;SDS011;24785;52.372;20.672;2022-11-25T16:35:58;129.93;;;41.55;;
38252;SDS011;24785;52.372;20.672;2022-11-25T16:45:59;135.48;;;45.53;;
38252;SDS011;24785;52.372;20.672;2022-11-25T16:56:00;102.35;;;36.20;;
38252;SDS011;24785;52.372;20.672;2022-11-25T17:06:04;98.38;;;32.75;;
38252;SDS011;24785;52.372;20.672;2022-11-25T17:16:14;99.23;;;33.00;;
38252;SDS011;24785;52.372;20.672;2022-11-25T17:26:20;126.70;;;45.92;;
38252;SDS011;24785;52.372;20.672;2022-11-25T17:36:38;106.82;;;38.22;;
38252;SDS011;24785;52.372;20.672;2022-11-25T17:46:39;101.53;;;31.65;;
38252;SDS011;24785;52.372;20.672;2022-11-25T17:56:41;105.78;;;32.63;;
38252;SDS011;24785;52.372;20.672;2022-11-25T18:06:43;98.05;;;28.70;;
38252;SDS011;24785;52.372;20.672;2022-11-25T18:16:44;74.55;;;24.02;;
38252;SDS011;24785;52.372;20.672;2022-11-25T18:26:46;80.80;;;23.92;;
38252;SDS011;24785;52.372;20.672;2022-11-25T18:36:50;89.20;;;27.13;;
38252;SDS011;24785;52.372;20.672;2022-11-25T18:46:52;89.00;;;27.83;;
38252;SDS011;24785;52.372;20.672;2022-11-25T18:56:53;163.57;;;57.90;;
38252;SDS011;24785;52.372;20.672;2022-11-25T19:06:54;99.65;;;33.70;;
38252;SDS011;24785;52.372;20.672;2022-11-25T19:16:55;95.20;;;30.58;;
38252;SDS011;24785;52.372;20.672;2022-11-25T19:27:01;101.65;;;30.00;;
38252;SDS011;24785;52.372;20.672;2022-11-25T19:37:02;112.60;;;30.43;;
38252;SDS011;24785;52.372;20.672;2022-11-25T19:47:03;97.60;;;29.92;;
38252;SDS011;24785;52.372;20.672;2022-11-25T19:57:09;110.55;;;30.42;;
38252;SDS011;24785;52.372;20.672;2022-11-25T20:07:15;107.38;;;31.83;;
38252;SDS011;24785;52.372;20.672;2022-11-25T20:27:27;128.27;;;32.17;;
38252;SDS011;24785;52.372;20.672;2022-11-25T20:37:28;141.50;;;37.50;;
38252;SDS011;24785;52.372;20.672;2022-11-25T20:47:29;147.32;;;33.78;;
38252;SDS011;24785;52.372;20.672;2022-11-25T20:57:31;126.83;;;30.93;;
38252;SDS011;24785;52.372;20.672;2022-11-25T21:07:35;120.38;;;31.23;;
38252;SDS011;24785;52.372;20.672;2022-11-25T21:17:36;114.72;;;32.45;;
38252;SDS011;24785;52.372;20.672;2022-11-25T21:27:37;150.77;;;32.38;;
38252;SDS011;24785;52.372;20.672;2022-11-25T21:37:38;139.50;;;31.50;;
38252;SDS011;24785;52.372;20.672;2022-11-25T21:47:40;126.72;;;33.33;;
38252;SDS011;24785;52.372;20.672;2022-11-25T21:57:41;135.43;;;34.40;;
38252;SDS011;24785;52.372;20.672;2022-11-25T22:07:43;164.95;;;34.90;;
38252;SDS011;24785;52.372;20.672;2022-11-25T22:17:44;149.10;;;37.70;;
38252;SDS011;24785;52.372;20.672;2022-11-25T22:27:45;161.82;;;37.22;;
38252;SDS011;24785;52.372;20.672;2022-11-25T22:37:47;130.87;;;30.13;;
38252;SDS011;24785;52.372;20.672;2022-11-25T22:47:48;151.77;;;37.53;;
38252;SDS011;24785;52.372;20.672;2022-11-25T22:57:50;136.60;;;35.72;;
38252;SDS011;24785;52.372;20.672;2022-11-25T23:07:52;172.65;;;34.38;;
38252;SDS011;24785;52.372;20.672;2022-11-25T23:17:54;155.40;;;36.65;;
38252;SDS011;24785;52.372;20.672;2022-11-25T23:27:57;155.82;;;34.78;;
38252;SDS011;24785;52.372;20.672;2022-11-25T23:37:58;182.60;;;43.08;;
38252;SDS011;24785;52.372;20.672;2022-11-25T23:47:59;182.43;;;40.72;;
38252;SDS011;24785;52.372;20.672;2022-11-25T23:58:01;219.90;;;43.28;;
